Time;durP1;ratioP1;P1;durP2;ratioP2;P2;SDS_P1;SDS_P2;PMS_P1;PMS_P2;Temp;Humidity;BMP_temperature;BMP_pressure;BME280_temperature;BME280_humidity;BME280_pressure;Samples;Min_cycle;Max_cycle;Signal;HPM_P1;HPM_P2
2022/03/19 00:01:42;;;;;;;16.25;5.53;;;;;;;5.07;100.00;103688.63;5236947;28;20019;-82
2022/03/19 00:04:13;;;;;;;19.50;5.65;;;;;;;5.10;100.00;103684.44;5256051;28;20489;-81
2022/03/19 00:06:46;;;;;;;16.35;5.35;;;;;;;5.04;100.00;103684.22;5236039;28;20551;-81
2022/03/19 00:09:16;;;;;;;15.32;5.78;;;;;;;5.02;100.00;103679.78;5254476;28;20466;-82
2022/03/19 00:11:47;;;;;;;16.73;5.38;;;;;;;5.00;100.00;103671.09;5238437;28;20031;-82
2022/03/19 00:14:18;;;;;;;19.83;5.50;;;;;;;4.99;100.00;103667.59;5242428;28;20097;-81
2022/03/19 00:16:48;;;;;;;13.52;5.40;;;;;;;4.99;100.00;103677.97;5241863;28;20096;-80
2022/03/19 00:19:18;;;;;;;12.35;5.75;;;;;;;5.00;100.00;103674.53;5245452;28;20103;-83
2022/03/19 00:21:49;;;;;;;17.75;6.38;;;;;;;4.86;100.00;103678.38;5243924;28;20027;-82
2022/03/19 00:24:20;;;;;;;17.33;6.07;;;;;;;4.98;100.00;103672.75;5241737;28;20541;-82
2022/03/19 00:26:50;;;;;;;14.52;5.40;;;;;;;4.98;100.00;103673.59;5240476;28;20120;-82
2022/03/19 00:29:20;;;;;;;14.50;5.78;;;;;;;4.95;100.00;103677.81;5259335;28;20402;-80
2022/03/19 00:31:50;;;;;;;16.08;5.47;;;;;;;4.86;100.00;103674.88;5255048;28;20066;-81
2022/03/19 00:34:21;;;;;;;19.40;5.70;;;;;;;4.84;100.00;103679.97;5239925;28;20044;-82
2022/03/19 00:36:51;;;;;;;12.40;5.70;;;;;;;4.85;100.00;103686.97;5240930;28;20023;-83
2022/03/19 00:39:22;;;;;;;13.30;5.43;;;;;;;4.80;100.00;103685.88;5242078;28;20052;-80
2022/03/19 00:41:52;;;;;;;15.90;5.80;;;;;;;4.70;100.00;103694.16;5257154;28;20028;-79
2022/03/19 00:44:23;;;;;;;18.48;6.32;;;;;;;4.50;100.00;103701.97;5241166;28;20478;-79
2022/03/19 00:46:53;;;;;;;15.27;6.18;;;;;;;4.50;100.00;103700.25;5256625;28;20020;-79
2022/03/19 00:49:23;;;;;;;18.30;6.28;;;;;;;4.40;100.00;103700.72;5261203;28;20028;-80
2022/03/19 00:51:54;;;;;;;11.63;5.00;;;;;;;4.37;100.00;103705.78;5256461;28;20247;-81
2022/03/19 00:54:24;;;;;;;11.57;5.20;;;;;;;4.37;100.00;103699.72;5255234;28;20034;-81
2022/03/19 00:56:54;;;;;;;19.95;5.80;;;;;;;4.36;100.00;103704.03;5234988;28;20067;-81
2022/03/19 00:59:24;;;;;;;17.40;5.78;;;;;;;4.36;100.00;103695.38;5255581;28;20103;-80
2022/03/19 01:01:56;;;;;;;18.00;5.80;;;;;;;4.37;100.00;103703.22;5251779;28;20032;-80
2022/03/19 01:04:26;;;;;;;20.88;6.40;;;;;;;4.43;100.00;103706.03;5253174;28;20028;-80
2022/03/19 01:06:56;;;;;;;15.18;5.55;;;;;;;4.39;100.00;103708.44;5251851;28;20077;-81
2022/03/19 01:09:27;;;;;;;19.13;5.85;;;;;;;4.39;100.00;103703.25;5237201;28;20056;-80
2022/03/19 01:11:57;;;;;;;17.48;6.07;;;;;;;4.40;100.00;103711.09;5233808;28;20024;-80
2022/03/19 01:14:27;;;;;;;18.40;5.55;;;;;;;4.42;100.00;103709.44;5255652;28;20039;-80
2022/03/19 01:16:58;;;;;;;18.05;5.90;;;;;;;4.37;100.00;103704.91;5235209;28;20025;-81
2022/03/19 01:22:18;;;;;;;19.75;5.40;;;;;;;4.30;100.00;103703.75;5251311;28;20055;-82
2022/03/19 01:24:50;;;;;;;19.10;5.82;;;;;;;4.25;100.00;103701.81;5235870;28;20034;-80
2022/03/19 01:27:20;;;;;;;18.42;5.72;;;;;;;4.19;100.00;103701.56;5236474;28;20426;-81
2022/03/19 01:29:51;;;;;;;13.82;5.78;;;;;;;4.19;100.00;103704.16;5235119;28;20024;-80
2022/03/19 01:32:21;;;;;;;16.58;5.60;;;;;;;4.22;100.00;103701.69;5250144;28;20028;-80
2022/03/19 01:34:51;;;;;;;19.20;6.13;;;;;;;4.10;100.00;103696.06;5237945;28;20649;-80
2022/03/19 01:37:22;;;;;;;18.42;5.47;;;;;;;4.07;100.00;103688.13;5248901;28;20040;-81
2022/03/19 01:39:55;;;;;;;15.35;5.55;;;;;;;4.03;100.00;103694.00;5233521;28;20031;-80
2022/03/19 01:42:27;;;;;;;14.38;5.90;;;;;;;3.98;100.00;103692.94;5256747;28;20119;-80
2022/03/19 01:44:58;;;;;;;16.98;5.28;;;;;;;4.05;100.00;103689.78;5238153;28;20062;-79
2022/03/19 01:47:30;;;;;;;14.43;5.45;;;;;;;4.09;100.00;103692.56;5234217;28;20032;-80
2022/03/19 01:50:00;;;;;;;19.23;5.75;;;;;;;4.00;100.00;103689.63;5235815;28;20101;-80
2022/03/19 01:52:31;;;;;;;18.60;5.78;;;;;;;4.03;100.00;103691.44;5243546;28;20497;-80
2022/03/19 01:55:02;;;;;;;16.08;6.05;;;;;;;3.93;100.00;103690.16;5234317;28;20024;-79
2022/03/19 01:57:37;;;;;;;16.65;5.68;;;;;;;3.98;100.00;103692.94;5255703;28;20023;-79
2022/03/19 02:00:09;;;;;;;23.98;7.70;;;;;;;3.95;100.00;103688.53;5255413;28;20020;-81
2022/03/19 02:02:40;;;;;;;16.33;5.90;;;;;;;4.00;100.00;103683.53;5231724;28;20032;-80
2022/03/19 02:05:16;;;;;;;16.92;5.93;;;;;;;3.90;100.00;103690.06;5253173;28;20043;-80
2022/03/19 02:07:48;;;;;;;21.00;5.75;;;;;;;4.03;100.00;103684.56;5235706;28;20032;-81
2022/03/19 02:10:21;;;;;;;19.35;6.38;;;;;;;3.88;100.00;103685.63;5235392;28;20037;-82
2022/03/19 02:12:53;;;;;;;17.23;5.60;;;;;;;3.90;100.00;103690.06;5233637;28;20031;-81
2022/03/19 02:15:24;;;;;;;18.85;6.05;;;;;;;3.80;100.00;103680.13;5256053;28;20081;-80
2022/03/19 02:17:54;;;;;;;23.02;5.93;;;;;;;3.77;100.00;103692.06;5235368;28;20028;-80
2022/03/19 02:20:24;;;;;;;24.67;6.68;;;;;;;3.75;100.00;103689.41;5236857;28;20066;-81
2022/03/19 02:25:48;;;;;;;20.80;6.07;;;;;;;3.92;100.00;103678.06;5256527;28;20054;-82
2022/03/19 02:28:18;;;;;;;26.80;6.25;;;;;;;3.76;100.00;103679.97;5236907;28;20028;-81
2022/03/19 02:30:48;;;;;;;21.50;6.60;;;;;;;3.72;100.00;103678.03;5256358;28;20021;-79
2022/03/19 02:33:19;;;;;;;16.98;6.40;;;;;;;3.64;100.00;103676.84;5248609;28;20024;-82
2022/03/19 02:35:49;;;;;;;18.88;6.68;;;;;;;3.68;100.00;103682.22;5238709;28;20093;-83
2022/03/19 02:38:19;;;;;;;22.88;6.80;;;;;;;3.66;100.00;103676.13;5254583;28;20028;-83
2022/03/19 02:40:50;;;;;;;21.98;7.38;;;;;;;3.63;100.00;103675.97;5235874;28;20058;-82
2022/03/19 02:43:20;;;;;;;25.45;6.95;;;;;;;3.64;100.00;103675.13;5236634;28;20032;-82
2022/03/19 02:45:50;;;;;;;21.50;6.65;;;;;;;3.59;100.00;103678.38;5255075;22;20012;-81
2022/03/19 02:48:30;;;;;;;24.30;7.03;;;;;;;3.56;100.00;103670.47;5267677;28;20069;-78
2022/03/19 02:51:00;;;;;;;19.10;6.40;;;;;;;3.53;100.00;103667.75;5269146;28;20477;-79
2022/03/19 02:53:31;;;;;;;20.77;6.80;;;;;;;3.66;100.00;103672.63;5275145;28;20080;-78
2022/03/19 02:56:01;;;;;;;22.55;7.07;;;;;;;3.74;100.00;103669.53;5266924;28;20035;-78
2022/03/19 02:58:34;;;;;;;22.08;7.25;;;;;;;3.62;100.00;103669.03;5258026;28;20028;-78
2022/03/19 03:01:04;;;;;;;26.00;7.80;;;;;;;3.64;100.00;103657.03;5253471;28;20054;-78
2022/03/19 03:03:37;;;;;;;24.63;6.97;;;;;;;3.50;100.00;103669.34;5249223;28;20024;-78
2022/03/19 03:06:08;;;;;;;19.80;7.07;;;;;;;3.50;100.00;103662.47;5250215;28;20028;-78
2022/03/19 03:08:42;;;;;;;24.20;7.32;;;;;;;3.48;100.00;103663.19;5254406;28;20098;-78
2022/03/19 03:11:13;;;;;;;23.38;8.13;;;;;;;3.45;100.00;103661.38;5254112;28;20168;-78
2022/03/19 03:13:46;;;;;;;26.25;7.97;;;;;;;3.49;100.00;103665.88;5256226;28;20024;-78
2022/03/19 03:16:20;;;;;;;20.17;7.00;;;;;;;3.52;100.00;103668.56;5255352;28;20028;-78
2022/03/19 03:18:59;;;;;;;24.20;7.78;;;;;;;3.58;100.00;103673.13;5255000;28;20020;-78
2022/03/19 03:21:39;;;;;;;17.70;6.90;;;;;;;3.56;100.00;103664.44;5256908;28;20110;-78
2022/03/19 03:24:14;;;;;;;26.83;7.70;;;;;;;3.51;100.00;103668.53;5254521;28;20017;-78
2022/03/19 03:26:46;;;;;;;30.02;8.90;;;;;;;3.51;100.00;103673.69;5257359;28;20031;-78
2022/03/19 03:29:24;;;;;;;19.67;7.18;;;;;;;3.47;100.00;103670.09;5252454;28;20032;-78
2022/03/19 03:31:54;;;;;;;20.13;7.55;;;;;;;3.39;100.00;103662.81;5252428;28;20043;-78
2022/03/19 03:34:36;;;;;;;23.90;7.88;;;;;;;3.48;100.00;103670.97;5254187;28;20053;-78
2022/03/19 03:37:09;;;;;;;23.85;7.25;;;;;;;3.39;100.00;103668.88;5238813;28;20039;-78
2022/03/19 03:39:52;;;;;;;17.52;7.35;;;;;;;3.32;100.00;103671.13;5255941;28;20023;-78
2022/03/19 03:42:22;;;;;;;20.10;6.93;;;;;;;3.24;100.00;103662.16;5237416;28;20032;-78
2022/03/19 03:44:58;;;;;;;23.90;7.72;;;;;;;3.32;100.00;103663.34;5254366;28;20073;-78
2022/03/19 03:47:34;;;;;;;20.05;7.35;;;;;;;3.45;100.00;103665.66;5256057;28;20028;-78
2022/03/19 03:50:14;;;;;;;23.38;7.13;;;;;;;3.40;100.00;103662.00;5252705;28;20024;-78
2022/03/19 03:52:47;;;;;;;20.50;7.38;;;;;;;3.31;100.00;103670.25;5254570;28;20043;-79
2022/03/19 03:55:21;;;;;;;27.17;7.80;;;;;;;3.31;100.00;103669.34;5254839;28;20127;-78
2022/03/19 03:57:57;;;;;;;27.67;8.15;;;;;;;3.38;100.00;103663.66;5256891;28;20020;-78
2022/03/19 04:00:38;;;;;;;26.70;8.35;;;;;;;3.22;100.00;103664.66;5258431;28;20027;-79
2022/03/19 04:03:11;;;;;;;31.90;7.88;;;;;;;3.16;100.00;103672.16;5257850;28;20286;-78
2022/03/19 04:05:42;;;;;;;24.90;8.52;;;;;;;3.22;100.00;103663.81;5253919;28;20063;-79
2022/03/19 04:08:12;;;;;;;27.15;7.55;;;;;;;3.30;100.00;103665.00;5254493;28;20489;-79
2022/03/19 04:10:43;;;;;;;23.08;7.75;;;;;;;3.16;100.00;103666.13;5254290;28;20424;-79
2022/03/19 04:13:15;;;;;;;20.52;7.80;;;;;;;3.29;100.00;103653.78;5255015;28;20123;-79
2022/03/19 04:15:46;;;;;;;23.17;7.75;;;;;;;3.10;100.00;103660.66;5252417;28;20036;-79
2022/03/19 04:18:16;;;;;;;25.15;8.13;;;;;;;3.10;100.00;103658.09;5254388;28;20028;-78
2022/03/19 04:20:47;;;;;;;21.58;7.70;;;;;;;3.18;100.00;103659.31;5253849;28;20060;-79
2022/03/19 04:23:20;;;;;;;24.92;8.55;;;;;;;3.16;100.00;103663.53;5254013;28;20025;-78
2022/03/19 04:25:50;;;;;;;25.77;8.43;;;;;;;3.15;100.00;103664.34;5253288;28;20020;-79
2022/03/19 04:28:20;;;;;;;21.88;7.85;;;;;;;3.08;100.00;103662.31;5257758;28;20043;-79
2022/03/19 04:31:01;;;;;;;26.15;8.50;;;;;;;3.13;100.00;103658.22;5254711;28;20016;-79
2022/03/19 04:33:32;;;;;;;30.05;9.25;;;;;;;3.11;100.00;103652.09;5242891;28;20089;-79
2022/03/19 04:38:59;;;;;;;;;;;;;;;3.10;100.00;103640.91;5253795;28;20425;-80
2022/03/19 04:41:31;;;;;;;25.95;8.10;;;;;;;3.09;100.00;103643.41;5256259;28;20001;-79
2022/03/19 04:44:01;;;;;;;30.48;9.68;;;;;;;3.08;100.00;103652.88;5253448;28;20021;-79
2022/03/19 04:46:32;;;;;;;21.58;8.52;;;;;;;3.13;100.00;103647.88;5252293;28;20028;-80
2022/03/19 04:49:03;;;;;;;24.50;8.88;;;;;;;3.07;100.00;103645.94;5252795;28;20516;-79
2022/03/19 04:51:40;;;;;;;21.92;8.48;;;;;;;3.00;100.00;103648.19;5252254;28;20107;-79
2022/03/19 04:54:10;;;;;;;24.02;8.35;;;;;;;2.87;100.00;103645.88;5250794;28;20421;-79
2022/03/19 04:56:40;;;;;;;23.73;8.27;;;;;;;2.95;100.00;103649.66;5253018;28;20027;-79
2022/03/19 04:59:15;;;;;;;20.40;7.43;;;;;;;3.04;100.00;103645.78;5254351;28;20031;-79
2022/03/19 05:01:45;;;;;;;22.58;8.05;;;;;;;2.95;100.00;103660.88;5251060;28;20017;-80
2022/03/19 05:04:16;;;;;;;17.50;7.43;;;;;;;2.79;100.00;103647.22;5238237;28;20020;-79
2022/03/19 05:06:46;;;;;;;22.65;7.85;;;;;;;2.74;100.00;103643.53;5255750;28;20205;-79
2022/03/19 05:12:06;;;;;;;22.92;7.65;;;;;;;2.74;100.00;103651.28;5253416;28;20055;-79
2022/03/19 05:14:36;;;;;;;22.17;8.75;;;;;;;2.67;100.00;103651.84;5256641;28;20020;-80
2022/03/19 05:17:07;;;;;;;20.83;7.72;;;;;;;2.65;100.00;103649.19;5253231;28;20465;-79
2022/03/19 05:19:38;;;;;;;22.60;8.52;;;;;;;2.62;100.00;103650.72;5256504;28;20022;-80
2022/03/19 05:22:08;;;;;;;17.48;7.95;;;;;;;2.66;100.00;103650.06;5255250;28;20020;-79
2022/03/19 05:24:39;;;;;;;27.17;8.98;;;;;;;2.82;100.00;103650.81;5260423;28;20024;-80
2022/03/19 05:27:09;;;;;;;19.17;8.13;;;;;;;2.82;100.00;103648.22;5253323;28;20067;-80
2022/03/19 05:29:40;;;;;;;22.30;8.50;;;;;;;2.94;100.00;103653.06;5237815;28;20031;-80
2022/03/19 05:32:10;;;;;;;22.90;8.95;;;;;;;2.92;100.00;103645.25;5248362;28;20020;-80
2022/03/19 05:34:41;;;;;;;21.40;7.95;;;;;;;2.78;100.00;103641.19;5253774;28;20024;-80
2022/03/19 05:37:13;;;;;;;26.45;8.77;;;;;;;2.72;100.00;103645.19;5253620;28;20020;-80
2022/03/19 05:39:43;;;;;;;20.02;8.68;;;;;;;2.80;100.00;103642.13;5254704;28;20020;-80
2022/03/19 05:42:14;;;;;;;20.98;8.98;;;;;;;2.86;100.00;103641.53;5253325;28;20024;-80
2022/03/19 05:44:45;;;;;;;28.20;8.55;;;;;;;2.86;100.00;103636.34;5254441;28;20020;-80
2022/03/19 05:47:15;;;;;;;24.80;8.02;;;;;;;2.84;100.00;103638.00;5253190;28;20024;-80
2022/03/19 05:49:45;;;;;;;24.45;9.77;;;;;;;2.84;100.00;103635.41;5253002;28;20489;-80
2022/03/19 05:52:16;;;;;;;26.80;8.27;;;;;;;2.80;100.00;103638.63;5235762;28;20447;-80
2022/03/19 05:54:46;;;;;;;23.02;8.00;;;;;;;2.72;100.00;103640.00;5237010;28;20034;-80
2022/03/19 05:57:17;;;;;;;23.23;8.15;;;;;;;2.65;100.00;103631.09;5257176;28;20040;-80
2022/03/19 05:59:47;;;;;;;21.70;8.82;;;;;;;2.64;100.00;103636.19;5254408;28;20382;-80
2022/03/19 06:02:17;;;;;;;23.75;8.07;;;;;;;2.75;100.00;103637.56;5250200;28;20032;-79
2022/03/19 06:04:48;;;;;;;28.10;8.60;;;;;;;2.69;100.00;103637.28;5251062;28;20028;-80
2022/03/19 06:07:18;;;;;;;22.50;8.27;;;;;;;2.66;100.00;103634.59;5237781;28;20052;-80
2022/03/19 06:09:48;;;;;;;19.85;8.75;;;;;;;2.71;100.00;103630.50;5255323;28;20068;-80
2022/03/19 06:12:19;;;;;;;22.52;8.20;;;;;;;2.80;100.00;103634.38;5255504;28;20379;-80
2022/03/19 06:14:53;;;;;;;22.73;8.07;;;;;;;2.80;100.00;103634.38;5254736;28;20028;-80
2022/03/19 06:17:23;;;;;;;23.38;7.88;;;;;;;2.80;100.00;103631.78;5238384;28;20077;-80
2022/03/19 06:19:54;;;;;;;23.40;8.73;;;;;;;2.70;100.00;103632.19;5253595;28;20032;-80
2022/03/19 06:22:25;;;;;;;22.45;8.55;;;;;;;2.88;100.00;103632.13;5250914;28;20035;-80
2022/03/19 06:24:55;;;;;;;22.13;8.25;;;;;;;2.96;100.00;103630.75;5257416;28;20498;-80
2022/03/19 06:27:26;;;;;;;16.73;6.95;;;;;;;2.91;100.00;103632.25;5252667;28;20020;-80
2022/03/19 06:29:56;;;;;;;20.35;7.60;;;;;;;2.65;100.00;103632.81;5255447;28;20027;-80
2022/03/19 06:32:26;;;;;;;20.17;7.63;;;;;;;2.49;100.00;103635.50;5248113;28;20533;-80
2022/03/19 06:35:02;;;;;;;21.13;7.22;;;;;;;2.64;100.00;103642.25;5235199;28;20032;-80
2022/03/19 06:37:33;;;;;;;22.30;7.55;;;;;;;2.64;100.00;103639.66;5251622;28;20032;-80
2022/03/19 06:40:06;;;;;;;20.30;7.80;;;;;;;2.76;100.00;103644.50;5255330;28;20027;-80
2022/03/19 06:42:37;;;;;;;23.85;7.75;;;;;;;2.76;100.00;103644.50;5252588;28;20175;-79
2022/03/19 06:45:07;;;;;;;26.10;7.72;;;;;;;2.74;100.00;103653.88;5259216;28;20028;-80
2022/03/19 06:47:45;;;;;;;19.95;7.78;;;;;;;2.79;100.00;103648.09;5255992;28;20028;-79
2022/03/19 06:50:18;;;;;;;21.65;8.68;;;;;;;2.90;100.00;103649.47;5239036;28;20560;-80
2022/03/19 06:52:51;;;;;;;25.73;8.00;;;;;;;3.16;100.00;103655.78;5261784;28;20020;-79
2022/03/19 06:55:37;;;;;;;18.40;7.80;;;;;;;3.04;100.00;103660.41;5245067;28;20046;-79
2022/03/19 06:58:13;;;;;;;;;;;;;;;3.17;100.00;103652.38;5238656;28;20115;-79
2022/03/19 07:00:52;;;;;;;21.02;7.18;;;;;;;3.21;100.00;103654.28;5255359;28;20320;-79
2022/03/19 07:03:25;;;;;;;19.73;7.18;;;;;;;3.31;100.00;103661.59;5238981;28;20047;-79
2022/03/19 07:06:24;;;;;;;19.77;7.03;;;;;;;3.40;100.00;103651.66;5261533;28;20145;-79
2022/03/19 07:09:07;;;;;;;19.45;6.78;;;;;;;3.52;100.00;103644.44;5258700;28;20033;-79
2022/03/19 07:11:38;;;;;;;16.10;6.15;;;;;;;3.62;100.00;103647.47;5238526;28;20059;-79
2022/03/19 07:14:13;;;;;;;20.92;6.57;;;;;;;3.75;100.00;103647.16;5239167;28;20071;-79
2022/03/19 07:16:44;;;;;;;18.17;6.03;;;;;;;3.89;100.00;103644.31;5257894;28;20306;-79
2022/03/19 07:19:14;;;;;;;15.10;6.03;;;;;;;3.98;100.00;103636.91;5258949;28;20024;-79
2022/03/19 07:21:47;;;;;;;21.63;5.97;;;;;;;4.11;100.00;103625.34;5256343;28;20054;-79
2022/03/19 07:24:20;;;;;;;18.75;6.32;;;;;;;4.44;100.00;103624.06;5256017;28;20119;-79
2022/03/19 07:26:50;;;;;;;18.58;5.82;;;;;;;4.87;100.00;103617.94;5258445;28;20120;-79
2022/03/19 07:29:31;;;;;;;21.05;5.55;;;;;;;5.30;100.00;103616.00;5258143;28;20074;-79
2022/03/19 07:32:05;;;;;;;15.95;4.45;;;;;;;7.50;97.50;103615.88;5233980;28;20119;-80
2022/03/19 07:34:39;;;;;;;11.73;4.18;;;;;;;8.13;90.40;103607.03;5252952;28;20058;-80
2022/03/19 07:37:09;;;;;;;14.50;4.03;;;;;;;8.68;84.68;103609.09;5255322;28;20496;-80
2022/03/19 07:39:40;;;;;;;14.60;3.80;;;;;;;10.14;82.75;103592.66;5255236;28;20024;-80
2022/03/19 07:42:21;;;;;;;11.27;3.75;;;;;;;10.62;75.64;103594.16;5237765;28;20047;-80
2022/03/19 07:44:56;;;;;;;10.93;3.65;;;;;;;11.95;70.51;103595.50;5253423;28;20496;-80
2022/03/19 07:47:26;;;;;;;11.68;3.70;;;;;;;12.94;68.33;103590.81;5257961;28;20040;-80
2022/03/19 07:50:00;;;;;;;10.73;4.20;;;;;;;10.14;76.01;103603.09;5255330;28;20469;-80
2022/03/19 07:52:37;;;;;;;12.20;3.90;;;;;;;11.04;73.56;103603.41;5253319;28;20020;-80
2022/03/19 07:55:08;;;;;;;9.13;3.42;;;;;;;9.59;78.99;103610.84;5250737;28;20020;-79
2022/03/19 07:57:38;;;;;;;15.52;3.55;;;;;;;10.23;76.43;103601.50;5252901;28;20024;-79
2022/03/19 08:00:09;;;;;;;8.55;3.33;;;;;;;10.86;73.70;103596.19;5253345;28;20065;-80
2022/03/19 08:02:40;;;;;;;12.52;3.60;;;;;;;11.21;73.95;103595.69;5252654;28;20020;-79
2022/03/19 08:05:16;;;;;;;10.63;3.25;;;;;;;11.91;72.58;103599.00;5257620;28;20138;-79
2022/03/19 08:07:52;;;;;;;11.23;3.83;;;;;;;11.26;72.41;103600.13;5254191;28;20024;-79
2022/03/19 08:10:24;;;;;;;12.65;3.33;;;;;;;10.69;71.56;103608.19;5252779;28;20084;-79
2022/03/19 08:13:03;;;;;;;13.65;3.75;;;;;;;11.27;73.17;103601.88;5254263;28;20440;-79
2022/03/19 08:15:37;;;;;;;11.95;3.08;;;;;;;11.29;73.57;103586.19;5237814;28;20027;-79
2022/03/19 08:18:10;;;;;;;12.07;3.20;;;;;;;10.47;72.68;103596.59;5253218;28;20264;-79
2022/03/19 08:20:45;;;;;;;11.00;2.92;;;;;;;10.52;73.80;103600.13;5257236;28;20016;-79
2022/03/19 08:23:20;;;;;;;13.70;3.08;;;;;;;10.29;74.48;103600.66;5257062;28;20405;-79
2022/03/19 08:25:50;;;;;;;10.13;2.80;;;;;;;10.67;73.31;103599.47;5257374;28;20469;-78
2022/03/19 08:28:20;;;;;;;9.25;2.92;;;;;;;10.55;74.76;103600.16;5238887;28;20047;-79
2022/03/19 08:30:55;;;;;;;8.70;2.80;;;;;;;11.09;72.77;103603.44;5252459;28;20025;-79
2022/03/19 08:33:58;;;;;;;11.70;3.08;;;;;;;10.52;73.12;103604.50;5251391;28;20028;-79
2022/03/19 08:36:29;;;;;;;12.15;2.90;;;;;;;11.18;72.82;103603.53;5234667;28;20024;-79
2022/03/19 08:41:58;;;;;;;10.55;2.70;;;;;;;12.07;68.89;103585.13;5257490;28;20024;-79
2022/03/19 08:44:28;;;;;;;9.25;2.83;;;;;;;13.45;65.70;103578.66;5252343;28;20020;-78
2022/03/19 08:46:58;;;;;;;8.75;2.78;;;;;;;14.36;64.47;103563.63;5282675;22;20035;-77
2022/03/19 08:49:29;;;;;;;10.82;3.00;;;;;;;13.36;65.59;103568.13;5281995;28;20335;-77
2022/03/19 08:51:59;;;;;;;12.13;3.13;;;;;;;14.95;62.38;103566.00;5283191;28;20031;-77
2022/03/19 08:54:30;;;;;;;9.60;2.80;;;;;;;12.85;65.49;103574.13;5283923;28;20019;-76
2022/03/19 08:57:00;;;;;;;11.07;2.47;;;;;;;13.01;65.71;103566.31;5277169;28;20030;-77
2022/03/19 08:59:30;;;;;;;9.32;2.40;;;;;;;13.87;64.32;103570.72;5262018;28;20065;-77
2022/03/19 09:02:01;;;;;;;9.35;2.20;;;;;;;12.21;66.24;103567.72;5267126;28;20052;-75
2022/03/19 09:04:34;;;;;;;8.10;2.30;;;;;;;11.82;67.31;103567.44;5244637;28;20505;-76
2022/03/19 09:07:04;;;;;;;9.63;2.40;;;;;;;12.06;67.72;103567.63;5259767;28;20085;-77
2022/03/19 09:09:35;;;;;;;9.73;2.93;;;;;;;11.65;71.07;103561.22;5266431;28;20036;-76
2022/03/19 09:12:06;;;;;;;7.65;2.30;;;;;;;12.09;66.53;103566.78;5262029;28;20267;-77
2022/03/19 09:14:36;;;;;;;8.45;2.33;;;;;;;12.05;69.61;103558.03;5265698;28;20027;-76
2022/03/19 09:17:06;;;;;;;7.47;2.17;;;;;;;11.80;68.53;103557.84;5245123;28;20039;-79
2022/03/19 09:19:37;;;;;;;11.95;2.38;;;;;;;11.43;70.37;103564.50;5265321;28;20016;-79
2022/03/19 09:22:07;;;;;;;6.68;2.20;;;;;;;9.76;73.69;103559.78;5262196;28;20024;-77
2022/03/19 09:24:37;;;;;;;9.23;2.60;;;;;;;9.03;76.90;103554.19;5263434;28;20032;-75
2022/03/19 09:27:08;;;;;;;7.15;2.50;;;;;;;9.21;76.90;103544.06;5262898;28;20053;-75
2022/03/19 09:29:38;;;;;;;10.85;2.33;;;;;;;8.95;80.19;103547.97;5247981;28;20027;-76
2022/03/19 09:32:11;;;;;;;10.52;2.72;;;;;;;9.62;77.96;103543.03;5242882;28;20035;-77
2022/03/19 09:34:43;;;;;;;9.27;2.40;;;;;;;8.98;78.14;103545.41;5258192;28;20051;-76
2022/03/19 09:37:15;;;;;;;13.00;2.55;;;;;;;8.76;78.74;103535.41;5260769;28;20031;-77
2022/03/19 09:39:45;;;;;;;9.07;2.72;;;;;;;8.50;79.57;103538.34;5259649;28;20493;-76
2022/03/19 09:42:15;;;;;;;9.23;2.40;;;;;;;8.88;78.43;103540.84;5258361;28;20024;-78
2022/03/19 09:44:46;;;;;;;9.20;2.47;;;;;;;9.15;78.61;103538.75;5263504;28;20056;-76
2022/03/19 09:47:18;;;;;;;11.73;2.95;;;;;;;9.27;78.58;103529.41;5262465;28;20365;-78
2022/03/19 09:49:49;;;;;;;11.95;3.40;;;;;;;9.38;81.93;103530.47;5263122;28;20095;-76
2022/03/19 09:52:20;;;;;;;7.57;2.25;;;;;;;9.25;77.97;103532.81;5265919;28;20116;-77
2022/03/19 09:54:50;;;;;;;8.43;2.13;;;;;;;8.94;81.49;103530.56;5246211;28;20119;-76
2022/03/19 09:57:20;;;;;;;11.30;2.40;;;;;;;8.52;80.74;103524.50;5266974;28;20029;-77
2022/03/19 09:59:50;;;;;;;5.38;1.98;;;;;;;9.17;78.91;103518.78;5264815;28;20053;-75
2022/03/19 10:02:21;;;;;;;9.33;2.30;;;;;;;9.32;78.89;103513.81;5266706;28;20036;-76
2022/03/19 10:04:52;;;;;;;8.55;2.20;;;;;;;9.11;79.79;103515.19;5264858;28;20289;-77
2022/03/19 10:10:14;;;;;;;9.15;2.20;;;;;;;9.23;80.66;103508.44;5267044;28;20034;-76
2022/03/19 10:12:46;;;;;;;8.90;2.10;;;;;;;9.28;78.15;103497.22;5264664;28;20493;-74
2022/03/19 10:15:16;;;;;;;11.88;2.30;;;;;;;9.01;78.62;103495.00;5264432;28;20116;-77
2022/03/19 10:17:46;;;;;;;8.07;2.25;;;;;;;8.90;79.23;103497.41;5247136;28;20043;-77
2022/03/19 10:20:17;;;;;;;9.93;2.38;;;;;;;9.04;81.54;103498.53;5264123;28;20028;-77
2022/03/19 10:22:47;;;;;;;11.10;2.25;;;;;;;9.19;77.18;103485.75;5264501;28;20020;-76
2022/03/19 10:25:19;;;;;;;11.15;2.08;;;;;;;9.12;75.77;103488.25;5264159;28;20035;-78
2022/03/19 10:27:49;;;;;;;9.30;1.80;;;;;;;9.42;76.11;103479.16;5245882;28;20083;-76
2022/03/19 10:30:20;;;;;;;9.68;2.33;;;;;;;9.38;77.93;103469.53;5263821;28;20092;-75
2022/03/19 10:32:53;;;;;;;11.05;2.10;;;;;;;9.71;75.45;103470.03;5259367;28;20016;-78
2022/03/19 10:35:34;;;;;;;13.07;2.00;;;;;;;9.38;76.62;103466.94;5261455;28;20032;-76
2022/03/19 10:38:19;;;;;;;9.90;1.80;;;;;;;9.52;75.62;103465.41;5257043;28;20540;-75
2022/03/19 10:40:52;;;;;;;8.70;1.90;;;;;;;9.46;75.51;103450.53;5259459;28;20048;-76
2022/03/19 10:43:23;;;;;;;8.05;1.70;;;;;;;9.67;75.74;103460.41;5261980;28;20799;-78
2022/03/19 10:45:56;;;;;;;8.50;2.00;;;;;;;9.28;76.19;103452.00;5260841;28;20040;-78
2022/03/19 10:48:27;;;;;;;10.50;2.08;;;;;;;9.28;76.89;103452.84;5261222;28;20404;-76
2022/03/19 10:50:58;;;;;;;7.75;1.95;;;;;;;9.65;78.37;103438.63;5257686;28;20028;-76
2022/03/19 10:53:28;;;;;;;10.85;2.00;;;;;;;10.12;75.44;103440.13;5261374;28;20051;-74
2022/03/19 10:56:01;;;;;;;6.95;1.90;;;;;;;9.97;72.39;103445.16;5258502;28;20559;-77
2022/03/19 10:58:31;;;;;;;7.80;1.75;;;;;;;9.88;73.98;103434.56;5259284;28;20028;-77
2022/03/19 11:01:02;;;;;;;10.57;1.95;;;;;;;9.69;72.32;103428.22;5241928;28;20023;-78
2022/03/19 11:03:35;;;;;;;7.90;1.60;;;;;;;9.84;71.45;103427.56;5266935;28;20036;-76
2022/03/19 11:06:07;;;;;;;5.18;1.35;;;;;;;9.39;70.91;103419.97;5257277;28;20314;-78
2022/03/19 11:08:43;;;;;;;9.82;1.90;;;;;;;9.77;74.82;103410.03;5242454;28;20024;-78
2022/03/19 11:11:27;;;;;;;5.30;1.60;;;;;;;9.66;74.38;103404.69;5259377;28;20024;-77
2022/03/19 11:14:01;;;;;;;11.93;1.80;;;;;;;10.13;73.57;103406.19;5258421;28;20047;-78
2022/03/19 11:16:36;;;;;;;6.22;1.60;;;;;;;10.08;71.56;103396.53;5265012;28;20039;-76
2022/03/19 11:19:08;;;;;;;3.90;1.40;;;;;;;10.12;72.27;103386.16;5258096;28;20047;-75
2022/03/19 11:21:39;;;;;;;4.85;1.42;;;;;;;10.03;69.50;103378.19;5259308;28;20390;-75
2022/03/19 11:24:22;;;;;;;8.55;1.65;;;;;;;9.91;71.53;103382.38;5263510;28;20646;-78
2022/03/19 11:26:53;;;;;;;11.68;2.13;;;;;;;9.94;74.67;103385.00;5259645;28;20626;-77
2022/03/19 11:29:24;;;;;;;6.05;1.75;;;;;;;10.11;73.88;103386.09;5259045;28;20033;-78
2022/03/19 11:31:59;;;;;;;5.47;1.70;;;;;;;10.22;70.52;103374.94;5264266;28;20393;-78
2022/03/19 11:34:46;;;;;;;9.75;1.65;;;;;;;10.05;70.87;103367.75;5248612;28;20033;-77
2022/03/19 11:37:17;;;;;;;6.43;1.58;;;;;;;10.12;73.03;103374.78;5245592;28;20032;-77
2022/03/19 11:40:12;;;;;;;6.47;1.45;;;;;;;9.86;69.64;103361.41;5262938;28;20067;-75
2022/03/19 11:42:57;;;;;;;7.35;1.30;;;;;;;9.92;67.98;103351.03;5264588;28;20047;-76
2022/03/19 11:45:50;;;;;;;11.52;1.70;;;;;;;10.11;69.91;103349.53;5267451;28;20123;-76
2022/03/19 11:48:38;;;;;;;8.75;1.40;;;;;;;10.66;68.07;103351.81;5266691;28;20040;-77
2022/03/19 11:51:19;;;;;;;7.22;1.38;;;;;;;10.41;67.36;103347.22;5263199;28;20399;-78
2022/03/19 11:53:56;;;;;;;5.03;1.40;;;;;;;9.94;69.24;103345.81;5265652;28;20016;-77
2022/03/19 11:56:47;;;;;;;6.45;1.25;;;;;;;10.03;71.97;103335.53;5264472;28;20036;-78
2022/03/19 11:59:24;;;;;;;6.53;1.20;;;;;;;9.99;70.72;103336.31;5266041;28;20029;-76
2022/03/19 12:02:09;;;;;;;6.75;1.60;;;;;;;9.95;72.51;103342.34;5261863;28;20036;-76
2022/03/19 12:04:47;;;;;;;8.73;1.48;;;;;;;10.08;72.39;103344.28;5265787;28;20024;-77